sensor_id;sensor_type;location;lat;lon;timestamp;pressure;altitude;pressure_sealevel;temperature;humidity
18850;BME280;4989;48.772;9.154;2023-02-11T00:03:54;100030.53;;;3.70;100.00
18850;BME280;4989;48.772;9.154;2023-02-11T00:08:57;100024.94;;;4.04;100.00
18850;BME280;4989;48.772;9.154;2023-02-11T00:14:02;100026.72;;;3.71;89.21
18850;BME280;4989;48.772;9.154;2023-02-11T00:19:05;100022.50;;;3.22;87.19
18850;BME280;4989;48.772;9.154;2023-02-11T00:24:08;100025.44;;;2.83;83.19
18850;BME280;4989;48.772;9.154;2023-02-11T00:29:11;100021.63;;;2.84;82.23
18850;BME280;4989;48.772;9.154;2023-02-11T00:34:14;100009.81;;;3.32;100.00
18850;BME280;4989;48.772;9.154;2023-02-11T00:39:17;100003.38;;;4.34;100.00
18850;BME280;4989;48.772;9.154;2023-02-11T00:44:19;99990.03;;;3.66;96.78
18850;BME280;4989;48.772;9.154;2023-02-11T00:49:22;99994.69;;;3.18;98.91
18850;BME280;4989;48.772;9.154;2023-02-11T00:54:26;99995.09;;;2.91;86.14
18850;BME280;4989;48.772;9.154;2023-02-11T00:59:31;100005.66;;;2.96;100.00
18850;BME280;4989;48.772;9.154;2023-02-11T01:04:35;99996.84;;;2.87;82.69
18850;BME280;4989;48.772;9.154;2023-02-11T01:09:38;100002.22;;;3.34;100.00
18850;BME280;4989;48.772;9.154;2023-02-11T01:14:41;99982.59;;;3.42;87.57
18850;BME280;4989;48.772;9.154;2023-02-11T01:19:43;99977.78;;;2.62;88.18
18850;BME280;4989;48.772;9.154;2023-02-11T01:24:46;99969.34;;;2.81;95.07
18850;BME280;4989;48.772;9.154;2023-02-11T01:29:49;99965.38;;;2.96;94.86
18850;BME280;4989;48.772;9.154;2023-02-11T01:34:51;99950.63;;;3.49;100.00
18850;BME280;4989;48.772;9.154;2023-02-11T01:39:54;99954.31;;;3.65;97.43
18850;BME280;4989;48.772;9.154;2023-02-11T01:44:57;99951.94;;;2.96;85.81
18850;BME280;4989;48.772;9.154;2023-02-11T01:50:00;99953.47;;;2.67;86.97
18850;BME280;4989;48.772;9.154;2023-02-11T01:55:08;99955.72;;;2.31;84.03
18850;BME280;4989;48.772;9.154;2023-02-11T02:00:34;99954.31;;;2.33;89.39
18850;BME280;4989;48.772;9.154;2023-02-11T02:05:55;99953.94;;;2.61;87.83
18850;BME280;4989;48.772;9.154;2023-02-11T02:11:03;99939.41;;;2.62;89.48
18850;BME280;4989;48.772;9.154;2023-02-11T02:16:11;99935.09;;;2.78;98.64
18850;BME280;4989;48.772;9.154;2023-02-11T02:43:10;99926.84;;;1.84;100.00
18850;BME280;4989;48.772;9.154;2023-02-11T02:48:27;99915.88;;;1.28;90.59
18850;BME280;4989;48.772;9.154;2023-02-11T02:59:30;99897.84;;;1.11;95.21
18850;BME280;4989;48.772;9.154;2023-02-11T03:10:42;99891.38;;;1.61;100.00
18850;BME280;4989;48.772;9.154;2023-02-11T03:15:40;99899.66;;;2.46;100.00
18850;BME280;4989;48.772;9.154;2023-02-11T03:20:48;99884.25;;;1.56;100.00
18850;BME280;4989;48.772;9.154;2023-02-11T03:25:57;99869.13;;;2.13;100.00
18850;BME280;4989;48.772;9.154;2023-02-11T03:36:56;99873.28;;;1.01;100.00
18850;BME280;4989;48.772;9.154;2023-02-11T03:42:02;99873.97;;;1.32;100.00
18850;BME280;4989;48.772;9.154;2023-02-11T03:47:09;99887.47;;;1.10;100.00
18850;BME280;4989;48.772;9.154;2023-02-11T03:52:13;99895.28;;;0.89;100.00
18850;BME280;4989;48.772;9.154;2023-02-11T03:57:17;99880.75;;;0.81;100.00
18850;BME280;4989;48.772;9.154;2023-02-11T04:02:21;99865.69;;;1.03;100.00
18850;BME280;4989;48.772;9.154;2023-02-11T04:07:25;99866.25;;;2.26;100.00
18850;BME280;4989;48.772;9.154;2023-02-11T04:12:28;99891.09;;;3.09;100.00
18850;BME280;4989;48.772;9.154;2023-02-11T04:17:30;99902.66;;;2.45;100.00
18850;BME280;4989;48.772;9.154;2023-02-11T04:22:33;99904.31;;;1.85;100.00
18850;BME280;4989;48.772;9.154;2023-02-11T04:27:36;99919.59;;;2.84;100.00
18850;BME280;4989;48.772;9.154;2023-02-11T04:32:38;99906.88;;;3.40;100.00
18850;BME280;4989;48.772;9.154;2023-02-11T04:37:41;99898.56;;;3.75;100.00
18850;BME280;4989;48.772;9.154;2023-02-11T04:42:43;99896.97;;;2.55;99.76
18850;BME280;4989;48.772;9.154;2023-02-11T04:47:46;99896.00;;;2.51;100.00
18850;BME280;4989;48.772;9.154;2023-02-11T04:52:48;99892.75;;;2.84;100.00
18850;BME280;4989;48.772;9.154;2023-02-11T04:57:51;99884.91;;;3.38;100.00
18850;BME280;4989;48.772;9.154;2023-02-11T05:02:53;99882.97;;;3.68;100.00
18850;BME280;4989;48.772;9.154;2023-02-11T05:07:56;99884.78;;;3.34;98.70
18850;BME280;4989;48.772;9.154;2023-02-11T05:12:59;99878.66;;;3.76;100.00
18850;BME280;4989;48.772;9.154;2023-02-11T05:18:02;99855.34;;;4.34;100.00
18850;BME280;4989;48.772;9.154;2023-02-11T05:23:04;99846.84;;;4.11;91.81
18850;BME280;4989;48.772;9.154;2023-02-11T05:28:07;99823.94;;;3.72;93.06
18850;BME280;4989;48.772;9.154;2023-02-11T05:33:10;99814.00;;;2.33;94.96
18850;BME280;4989;48.772;9.154;2023-02-11T05:38:12;99821.63;;;2.60;96.94
18850;BME280;4989;48.772;9.154;2023-02-11T05:43:15;99821.41;;;2.83;96.89
18850;BME280;4989;48.772;9.154;2023-02-11T05:48:18;99832.66;;;3.27;95.88
18850;BME280;4989;48.772;9.154;2023-02-11T05:53:20;99826.59;;;3.59;95.36
18850;BME280;4989;48.772;9.154;2023-02-11T05:58:23;99830.16;;;2.62;91.27
18850;BME280;4989;48.772;9.154;2023-02-11T06:03:26;99841.66;;;2.71;90.73
18850;BME280;4989;48.772;9.154;2023-02-11T06:08:28;99848.56;;;2.81;88.54
18850;BME280;4989;48.772;9.154;2023-02-11T06:13:30;99849.91;;;2.66;89.33
18850;BME280;4989;48.772;9.154;2023-02-11T06:18:33;99862.75;;;2.43;91.52
18850;BME280;4989;48.772;9.154;2023-02-11T06:23:36;99860.78;;;1.97;95.77
18850;BME280;4989;48.772;9.154;2023-02-11T06:28:38;99850.50;;;2.16;95.32
18850;BME280;4989;48.772;9.154;2023-02-11T06:33:43;99854.44;;;2.27;95.18
18850;BME280;4989;48.772;9.154;2023-02-11T06:38:46;99849.19;;;2.40;94.59
18850;BME280;4989;48.772;9.154;2023-02-11T06:43:49;99855.97;;;2.37;93.26
18850;BME280;4989;48.772;9.154;2023-02-11T06:48:53;99854.22;;;2.41;92.99
18850;BME280;4989;48.772;9.154;2023-02-11T06:53:55;99868.72;;;2.49;95.98
18850;BME280;4989;48.772;9.154;2023-02-11T06:58:58;99874.22;;;2.61;100.00
18850;BME280;4989;48.772;9.154;2023-02-11T07:04:00;99877.94;;;2.78;94.78
18850;BME280;4989;48.772;9.154;2023-02-11T07:09:06;99873.03;;;2.33;97.27
18850;BME280;4989;48.772;9.154;2023-02-11T07:14:09;99868.78;;;2.32;98.21
18850;BME280;4989;48.772;9.154;2023-02-11T07:19:12;99864.13;;;2.58;99.33
18850;BME280;4989;48.772;9.154;2023-02-11T07:24:14;99856.56;;;3.19;95.25
18850;BME280;4989;48.772;9.154;2023-02-11T07:29:17;99858.03;;;3.38;90.95
18850;BME280;4989;48.772;9.154;2023-02-11T07:34:20;99865.56;;;2.47;94.80
18850;BME280;4989;48.772;9.154;2023-02-11T07:39:22;99865.63;;;2.77;95.82
18850;BME280;4989;48.772;9.154;2023-02-11T07:44:28;99886.66;;;3.63;99.63
18850;BME280;4989;48.772;9.154;2023-02-11T07:49:31;99877.44;;;4.06;95.26
18850;BME280;4989;48.772;9.154;2023-02-11T07:54:33;99863.94;;;4.61;100.00
18850;BME280;4989;48.772;9.154;2023-02-11T07:59:36;99856.53;;;4.94;98.85
18850;BME280;4989;48.772;9.154;2023-02-11T08:04:38;99852.97;;;5.02;94.16
18850;BME280;4989;48.772;9.154;2023-02-11T08:09:41;99847.56;;;4.90;86.76
18850;BME280;4989;48.772;9.154;2023-02-11T08:14:44;99834.28;;;4.48;96.80
18850;BME280;4989;48.772;9.154;2023-02-11T08:19:46;99830.94;;;5.13;100.00
18850;BME280;4989;48.772;9.154;2023-02-11T08:24:49;99843.22;;;5.63;95.72
18850;BME280;4989;48.772;9.154;2023-02-11T08:29:54;99848.13;;;6.01;87.99
18850;BME280;4989;48.772;9.154;2023-02-11T08:34:59;99861.88;;;6.24;87.40
18850;BME280;4989;48.772;9.154;2023-02-11T08:40:02;99869.72;;;6.29;85.99
18850;BME280;4989;48.772;9.154;2023-02-11T08:45:05;99859.03;;;6.33;97.41
18850;BME280;4989;48.772;9.154;2023-02-11T08:50:07;99859.16;;;6.08;82.36
18850;BME280;4989;48.772;9.154;2023-02-11T08:55:10;99852.59;;;6.53;100.00
18850;BME280;4989;48.772;9.154;2023-02-11T09:00:13;99844.81;;;7.15;82.87
18850;BME280;4989;48.772;9.154;2023-02-11T09:05:16;99847.81;;;6.78;78.09
18850;BME280;4989;48.772;9.154;2023-02-11T09:10:19;99848.63;;;6.19;81.06
18850;BME280;4989;48.772;9.154;2023-02-11T09:15:21;99862.25;;;6.38;80.06
18850;BME280;4989;48.772;9.154;2023-02-11T09:20:25;99854.09;;;6.51;78.48
18850;BME280;4989;48.772;9.154;2023-02-11T09:25:30;99845.31;;;7.05;77.40
18850;BME280;4989;48.772;9.154;2023-02-11T09:30:33;99842.03;;;7.66;73.35
18850;BME280;4989;48.772;9.154;2023-02-11T09:35:35;99832.50;;;7.92;73.51
18850;BME280;4989;48.772;9.154;2023-02-11T09:40:42;99833.06;;;7.82;73.56
18850;BME280;4989;48.772;9.154;2023-02-11T09:45:45;99825.81;;;7.66;73.01
18850;BME280;4989;48.772;9.154;2023-02-11T09:50:56;99831.75;;;7.37;74.76
18850;BME280;4989;48.772;9.154;2023-02-11T09:56:02;99834.59;;;8.21;71.99
18850;BME280;4989;48.772;9.154;2023-02-11T10:22:45;99851.47;;;9.86;64.93
18850;BME280;4989;48.772;9.154;2023-02-11T10:27:50;99856.91;;;11.13;60.69
18850;BME280;4989;48.772;9.154;2023-02-11T10:37:59;99845.53;;;10.48;62.81
18850;BME280;4989;48.772;9.154;2023-02-11T10:43:04;99849.22;;;10.74;62.22
18850;BME280;4989;48.772;9.154;2023-02-11T10:53:39;99836.16;;;11.53;63.90
18850;BME280;4989;48.772;9.154;2023-02-11T10:58:54;99820.44;;;12.19;64.63
18850;BME280;4989;48.772;9.154;2023-02-11T11:03:58;99814.63;;;13.03;55.20
18850;BME280;4989;48.772;9.154;2023-02-11T11:09:01;99806.38;;;13.46;52.69
18850;BME280;4989;48.772;9.154;2023-02-11T11:14:03;99795.19;;;12.29;55.24
18850;BME280;4989;48.772;9.154;2023-02-11T11:24:38;99788.88;;;15.10;50.18
18850;BME280;4989;48.772;9.154;2023-02-11T11:29:52;99795.28;;;17.80;43.84
18850;BME280;4989;48.772;9.154;2023-02-11T11:35:01;99798.22;;;19.92;38.27
18850;BME280;4989;48.772;9.154;2023-02-11T11:40:21;99802.78;;;22.16;34.40
18850;BME280;4989;48.772;9.154;2023-02-11T11:45:25;99795.78;;;21.71;34.55
18850;BME280;4989;48.772;9.154;2023-02-11T11:50:39;99783.88;;;23.28;32.54
18850;BME280;4989;48.772;9.154;2023-02-11T11:56:24;99786.34;;;23.36;31.31
18850;BME280;4989;48.772;9.154;2023-02-11T12:28:06;99784.78;;;18.93;41.87
18850;BME280;4989;48.772;9.154;2023-02-11T12:33:54;99777.03;;;19.17;37.94
18850;BME280;4989;48.772;9.154;2023-02-11T12:50:12;99797.09;;;15.10;48.70
18850;BME280;4989;48.772;9.154;2023-02-11T12:55:24;99783.09;;;15.01;49.62
18850;BME280;4989;48.772;9.154;2023-02-11T13:00:50;99780.19;;;14.78;50.02
18850;BME280;4989;48.772;9.154;2023-02-11T13:05:58;99777.25;;;14.54;50.11
18850;BME280;4989;48.772;9.154;2023-02-11T13:11:07;99758.47;;;14.01;50.76
18850;BME280;4989;48.772;9.154;2023-02-11T13:32:10;99749.38;;;16.27;46.36
18850;BME280;4989;48.772;9.154;2023-02-11T13:37:35;99746.41;;;14.95;49.68
18850;BME280;4989;48.772;9.154;2023-02-11T13:47:56;99747.97;;;12.97;58.64
18850;BME280;4989;48.772;9.154;2023-02-11T13:53:01;99748.06;;;12.47;61.29
18850;BME280;4989;48.772;9.154;2023-02-11T14:08:31;99741.72;;;11.82;61.21
18850;BME280;4989;48.772;9.154;2023-02-11T14:18:56;99730.44;;;11.83;67.40
18850;BME280;4989;48.772;9.154;2023-02-11T14:39:57;99741.84;;;11.12;66.41
18850;BME280;4989;48.772;9.154;2023-02-11T14:45:09;99742.69;;;11.20;63.89
18850;BME280;4989;48.772;9.154;2023-02-11T14:50:24;99744.22;;;11.21;65.17
18850;BME280;4989;48.772;9.154;2023-02-11T14:55:34;99754.72;;;11.19;66.49
18850;BME280;4989;48.772;9.154;2023-02-11T15:11:18;99763.19;;;11.07;64.82
18850;BME280;4989;48.772;9.154;2023-02-11T15:16:26;99765.84;;;10.92;66.33
18850;BME280;4989;48.772;9.154;2023-02-11T15:21:33;99765.88;;;10.96;64.92
18850;BME280;4989;48.772;9.154;2023-02-11T15:26:36;99773.25;;;10.95;65.80
18850;BME280;4989;48.772;9.154;2023-02-11T15:31:38;99769.69;;;10.84;66.16
18850;BME280;4989;48.772;9.154;2023-02-11T15:36:41;99768.75;;;10.62;67.62
18850;BME280;4989;48.772;9.154;2023-02-11T15:41:44;99779.53;;;10.51;69.64
18850;BME280;4989;48.772;9.154;2023-02-11T15:46:46;99784.97;;;10.51;71.35
18850;BME280;4989;48.772;9.154;2023-02-11T15:51:50;99798.88;;;10.43;67.98
18850;BME280;4989;48.772;9.154;2023-02-11T15:57:01;99794.13;;;10.32;66.81
18850;BME280;4989;48.772;9.154;2023-02-11T16:07:46;99799.53;;;10.29;68.90
18850;BME280;4989;48.772;9.154;2023-02-11T16:13:14;99805.84;;;10.40;69.85
18850;BME280;4989;48.772;9.154;2023-02-11T16:18:36;99812.88;;;10.45;68.52
18850;BME280;4989;48.772;9.154;2023-02-11T16:23:42;99817.41;;;10.30;70.18
18850;BME280;4989;48.772;9.154;2023-02-11T16:28:50;99824.00;;;10.29;72.48
18850;BME280;4989;48.772;9.154;2023-02-11T16:33:53;99821.91;;;10.19;71.56
18850;BME280;4989;48.772;9.154;2023-02-11T16:38:55;99825.03;;;10.21;73.17
18850;BME280;4989;48.772;9.154;2023-02-11T16:43:57;99837.16;;;10.27;70.76
18850;BME280;4989;48.772;9.154;2023-02-11T16:49:09;99844.47;;;10.23;70.52
18850;BME280;4989;48.772;9.154;2023-02-11T16:54:14;99845.22;;;10.20;69.65
18850;BME280;4989;48.772;9.154;2023-02-11T16:59:17;99839.06;;;10.23;68.79
18850;BME280;4989;48.772;9.154;2023-02-11T17:04:24;99845.81;;;10.02;69.01
18850;BME280;4989;48.772;9.154;2023-02-11T17:09:28;99849.72;;;10.05;71.21
18850;BME280;4989;48.772;9.154;2023-02-11T17:14:32;99853.38;;;10.20;68.71
18850;BME280;4989;48.772;9.154;2023-02-11T17:19:34;99855.25;;;10.16;69.86
18850;BME280;4989;48.772;9.154;2023-02-11T17:24:36;99857.66;;;10.21;69.91
18850;BME280;4989;48.772;9.154;2023-02-11T17:29:38;99860.53;;;10.01;73.15
18850;BME280;4989;48.772;9.154;2023-02-11T17:34:41;99842.69;;;10.00;70.52
18850;BME280;4989;48.772;9.154;2023-02-11T17:39:43;99859.34;;;9.99;72.30
18850;BME280;4989;48.772;9.154;2023-02-11T17:44:45;99852.72;;;9.96;71.74
18850;BME280;4989;48.772;9.154;2023-02-11T17:49:47;99861.31;;;9.38;69.15
18850;BME280;4989;48.772;9.154;2023-02-11T17:54:50;99861.81;;;9.47;70.05
18850;BME280;4989;48.772;9.154;2023-02-11T17:59:52;99872.88;;;9.35;70.20
18850;BME280;4989;48.772;9.154;2023-02-11T18:04:54;99875.72;;;9.19;71.64
18850;BME280;4989;48.772;9.154;2023-02-11T18:09:58;99881.53;;;9.17;72.33
18850;BME280;4989;48.772;9.154;2023-02-11T18:15:00;99879.31;;;9.00;71.62
18850;BME280;4989;48.772;9.154;2023-02-11T18:20:03;99889.34;;;9.23;80.83
18850;BME280;4989;48.772;9.154;2023-02-11T18:25:07;99884.72;;;9.23;78.65
18850;BME280;4989;48.772;9.154;2023-02-11T18:30:19;99894.03;;;9.26;76.32
18850;BME280;4989;48.772;9.154;2023-02-11T18:35:22;99884.66;;;8.93;72.67
18850;BME280;4989;48.772;9.154;2023-02-11T18:40:24;99891.72;;;9.01;79.59
18850;BME280;4989;48.772;9.154;2023-02-11T18:45:29;99901.59;;;9.36;81.57
18850;BME280;4989;48.772;9.154;2023-02-11T18:50:32;99903.13;;;9.37;75.37
18850;BME280;4989;48.772;9.154;2023-02-11T18:55:38;99907.78;;;8.87;73.82
18850;BME280;4989;48.772;9.154;2023-02-11T19:00:45;99922.47;;;8.86;73.32
18850;BME280;4989;48.772;9.154;2023-02-11T19:05:48;99903.31;;;8.98;73.12
18850;BME280;4989;48.772;9.154;2023-02-11T19:10:51;99889.22;;;8.89;72.15
18850;BME280;4989;48.772;9.154;2023-02-11T19:15:53;99892.34;;;8.68;73.03
18850;BME280;4989;48.772;9.154;2023-02-11T19:20:55;99893.56;;;8.70;73.14
18850;BME280;4989;48.772;9.154;2023-02-11T19:25:57;99896.59;;;8.65;73.05
18850;BME280;4989;48.772;9.154;2023-02-11T19:31:07;99899.41;;;8.73;74.00
18850;BME280;4989;48.772;9.154;2023-02-11T19:36:11;99908.50;;;8.84;73.39
18850;BME280;4989;48.772;9.154;2023-02-11T19:41:17;99903.88;;;8.84;73.42
18850;BME280;4989;48.772;9.154;2023-02-11T19:46:25;99902.13;;;8.73;74.36
18850;BME280;4989;48.772;9.154;2023-02-11T19:51:29;99896.25;;;8.70;75.12
18850;BME280;4989;48.772;9.154;2023-02-11T19:56:33;99895.97;;;8.76;82.19
18850;BME280;4989;48.772;9.154;2023-02-11T20:01:36;99877.22;;;8.67;78.57
18850;BME280;4989;48.772;9.154;2023-02-11T20:06:39;99893.84;;;8.88;79.98
18850;BME280;4989;48.772;9.154;2023-02-11T20:11:41;99898.59;;;8.95;80.14
18850;BME280;4989;48.772;9.154;2023-02-11T20:16:43;99897.91;;;9.25;81.28
18850;BME280;4989;48.772;9.154;2023-02-11T20:21:52;99890.50;;;9.22;81.05
18850;BME280;4989;48.772;9.154;2023-02-11T20:26:57;99890.13;;;8.97;75.05
18850;BME280;4989;48.772;9.154;2023-02-11T20:31:59;99881.69;;;9.02;79.62
18850;BME280;4989;48.772;9.154;2023-02-11T20:37:01;99883.91;;;8.96;78.54
18850;BME280;4989;48.772;9.154;2023-02-11T20:42:07;99891.22;;;9.18;77.13
18850;BME280;4989;48.772;9.154;2023-02-11T20:47:11;99892.69;;;9.12;75.06
18850;BME280;4989;48.772;9.154;2023-02-11T20:52:13;99897.53;;;8.77;77.37
18850;BME280;4989;48.772;9.154;2023-02-11T20:57:16;99903.41;;;8.59;77.42
18850;BME280;4989;48.772;9.154;2023-02-11T21:02:18;99906.13;;;8.59;78.32
18850;BME280;4989;48.772;9.154;2023-02-11T21:07:24;99905.91;;;8.68;77.79
18850;BME280;4989;48.772;9.154;2023-02-11T21:12:29;99911.13;;;8.57;78.79
18850;BME280;4989;48.772;9.154;2023-02-11T21:17:32;99912.34;;;8.60;84.59
18850;BME280;4989;48.772;9.154;2023-02-11T21:22:34;99925.63;;;8.88;82.73
18850;BME280;4989;48.772;9.154;2023-02-11T21:27:36;99903.56;;;8.66;78.32
18850;BME280;4989;48.772;9.154;2023-02-11T21:32:39;99914.56;;;8.54;82.07
18850;BME280;4989;48.772;9.154;2023-02-11T21:37:41;99915.84;;;8.60;81.68
18850;BME280;4989;48.772;9.154;2023-02-11T21:42:43;99922.97;;;8.68;79.57
18850;BME280;4989;48.772;9.154;2023-02-11T21:47:45;99922.13;;;8.25;79.42
18850;BME280;4989;48.772;9.154;2023-02-11T21:52:47;99924.41;;;8.23;80.71
18850;BME280;4989;48.772;9.154;2023-02-11T21:57:50;99936.41;;;8.42;86.30
18850;BME280;4989;48.772;9.154;2023-02-11T22:02:52;99939.28;;;8.95;83.74
18850;BME280;4989;48.772;9.154;2023-02-11T22:07:54;99939.69;;;8.51;78.98
18850;BME280;4989;48.772;9.154;2023-02-11T22:12:56;99929.13;;;8.26;80.47
18850;BME280;4989;48.772;9.154;2023-02-11T22:17:58;99944.59;;;8.26;80.55
18850;BME280;4989;48.772;9.154;2023-02-11T22:23:00;99936.81;;;8.24;82.10
18850;BME280;4989;48.772;9.154;2023-02-11T22:28:02;99943.16;;;8.13;82.10
18850;BME280;4989;48.772;9.154;2023-02-11T22:33:04;99941.38;;;8.20;82.60
18850;BME280;4989;48.772;9.154;2023-02-11T22:38:06;99954.47;;;8.38;87.86
18850;BME280;4989;48.772;9.154;2023-02-11T22:43:09;99954.63;;;8.64;82.13
18850;BME280;4989;48.772;9.154;2023-02-11T22:48:12;99960.06;;;8.45;81.71
18850;BME280;4989;48.772;9.154;2023-02-11T22:53:14;99937.75;;;8.32;81.61
18850;BME280;4989;48.772;9.154;2023-02-11T22:58:16;99933.38;;;8.27;81.42
18850;BME280;4989;48.772;9.154;2023-02-11T23:03:19;99955.31;;;8.22;84.61
18850;BME280;4989;48.772;9.154;2023-02-11T23:08:21;99944.94;;;8.05;82.39
18850;BME280;4989;48.772;9.154;2023-02-11T23:13:23;99947.34;;;8.10;82.22
18850;BME280;4989;48.772;9.154;2023-02-11T23:18:25;99942.13;;;8.01;82.78
18850;BME280;4989;48.772;9.154;2023-02-11T23:23:28;99933.38;;;7.89;83.66
18850;BME280;4989;48.772;9.154;2023-02-11T23:28:30;99936.38;;;8.03;83.55
18850;BME280;4989;48.772;9.154;2023-02-11T23:33:32;99938.66;;;8.01;83.64
18850;BME280;4989;48.772;9.154;2023-02-11T23:38:34;99940.44;;;8.13;84.20
18850;BME280;4989;48.772;9.154;2023-02-11T23:43:37;99951.63;;;8.31;94.53
18850;BME280;4989;48.772;9.154;2023-02-11T23:48:42;99955.63;;;8.76;84.96
18850;BME280;4989;48.772;9.154;2023-02-11T23:53:45;99952.34;;;8.47;82.98
18850;BME280;4989;48.772;9.154;2023-02-11T23:58:49;99954.91;;;8.59;87.46
